Time;durP1;ratioP1;P1;durP2;ratioP2;P2;SDS_P1;SDS_P2;PMS_P1;PMS_P2;Temp;Humidity;BMP_temperature;BMP_pressure;BME280_temperature;BME280_humidity;BME280_pressure;Samples;Min_cycle;Max_cycle;Signal;HPM_P1;HPM_P2
2022/06/14 01:00:20;;;;;;;10.88;3.83;;;9.90;99.90;;;;;;5187932;22;20051;-81
2022/06/14 01:02:59;;;;;;;10.63;3.75;;;9.90;99.90;;;;;;5097012;28;20083;-79
2022/06/14 01:06:05;;;;;;;12.10;3.90;;;9.90;99.90;;;;;;5093296;28;20131;-80
2022/06/14 01:08:26;;;;;;;15.18;4.13;;;9.90;99.90;;;;;;5093402;28;20058;-79
2022/06/14 01:10:52;;;;;;;7.93;3.78;;;;;;;;;;5093748;28;20080;-79
2022/06/14 01:13:20;;;;;;;11.27;4.20;;;9.90;99.90;;;;;;5093951;28;20044;-80
2022/06/14 01:15:50;;;;;;;11.18;4.00;;;9.80;99.90;;;;;;5093262;28;20055;-79
2022/06/14 01:18:16;;;;;;;12.63;4.60;;;;;;;;;;5081410;28;20052;-79
2022/06/14 01:20:43;;;;;;;12.25;4.05;;;9.90;99.90;;;;;;5038938;28;20052;-79
2022/06/14 01:23:13;;;;;;;16.35;4.72;;;9.80;99.90;;;;;;5058605;28;20059;-80
2022/06/14 01:25:43;;;;;;;15.30;5.53;;;10.50;99.90;;;;;;5059139;28;20135;-79
2022/06/14 01:28:10;;;;;;;14.52;5.50;;;9.80;99.90;;;;;;5059635;28;20048;-79
2022/06/14 01:30:45;;;;;;;15.77;6.07;;;9.80;99.90;;;;;;5077248;28;20052;-79
2022/06/14 01:33:23;;;;;;;15.13;4.70;;;9.50;99.90;;;;;;5077539;28;20063;-79
2022/06/14 01:35:54;;;;;;;13.57;5.00;;;9.80;99.90;;;;;;5077053;28;20131;-79
2022/06/14 01:38:20;;;;;;;14.32;5.70;;;;;;;;;;5077405;28;20057;-79
2022/06/14 01:40:51;;;;;;;13.20;6.00;;;9.70;99.90;;;;;;5077337;28;20056;-80
2022/06/14 01:43:17;;;;;;;12.07;5.82;;;;;;;;;;5077146;28;20050;-79
2022/06/14 01:45:45;;;;;;;13.38;6.13;;;10.10;99.90;;;;;;5059133;28;20059;-80
2022/06/14 01:48:33;;;;;;;10.90;5.97;;;9.70;99.90;;;;;;5059013;28;20053;-79
2022/06/14 01:53:50;;;;;;;24.60;6.25;;;9.80;99.90;;;;;;5081345;28;20045;-80
2022/06/14 01:56:16;;;;;;;16.00;6.25;;;;;;;;;;5079484;28;20051;-79
2022/06/14 01:59:07;;;;;;;13.80;6.53;;;9.80;99.90;;;;;;5080309;28;20048;-79
2022/06/14 02:01:38;;;;;;;12.52;6.18;;;9.90;99.90;;;;;;5078408;28;20064;-80
2022/06/14 02:04:39;;;;;;;16.20;6.47;;;9.80;99.90;;;;;;5059534;28;20055;-80
2022/06/14 02:07:21;;;;;;;13.02;6.15;;;9.90;99.90;;;;;;5061518;28;20052;-79
2022/06/14 02:10:11;;;;;;;15.82;7.00;;;9.90;99.90;;;;;;5077234;28;20052;-79
2022/06/14 02:12:57;;;;;;;16.10;6.75;;;9.70;99.90;;;;;;5077781;28;20059;-79
2022/06/14 02:15:40;;;;;;;16.00;6.80;;;9.70;99.90;;;;;;4993532;28;20075;-79
2022/06/14 02:18:31;;;;;;;19.65;6.78;;;9.60;99.90;;;;;;5077400;28;20079;-79
2022/06/14 02:21:13;;;;;;;16.70;6.68;;;9.60;99.90;;;;;;5078682;28;20127;-80
2022/06/14 02:23:44;;;;;;;16.38;7.10;;;9.70;99.90;;;;;;5077683;28;20059;-79
2022/06/14 02:26:23;;;;;;;13.27;6.90;;;9.60;99.90;;;;;;5077907;28;20052;-80
2022/06/14 02:28:54;;;;;;;13.23;6.63;;;9.60;99.90;;;;;;5077679;28;20048;-79
2022/06/14 02:31:27;;;;;;;15.57;6.15;;;9.60;99.90;;;;;;5059507;28;20055;-80
2022/06/14 02:34:05;;;;;;;16.35;7.07;;;9.20;99.90;;;;;;5041529;28;20056;-79
2022/06/14 02:36:41;;;;;;;13.18;6.25;;;9.50;99.90;;;;;;5077031;28;20048;-79
2022/06/14 02:39:12;;;;;;;18.67;6.68;;;9.60;99.90;;;;;;5077218;28;20053;-80
2022/06/14 02:41:38;;;;;;;16.58;7.10;;;;;;;;;;5042464;28;20048;-80
2022/06/14 02:44:33;;;;;;;15.55;6.60;;;9.40;99.90;;;;;;5076993;28;20121;-80
2022/06/14 02:47:22;;;;;;;12.15;6.75;;;9.60;99.90;;;;;;5076473;28;20071;-80
2022/06/14 02:50:00;;;;;;;14.02;6.40;;;9.60;99.90;;;;;;5076448;28;20056;-80
2022/06/14 02:52:34;;;;;;;17.50;7.30;;;9.50;99.90;;;;;;5057931;28;20139;-79
2022/06/14 02:55:09;;;;;;;17.25;7.63;;;9.40;99.90;;;;;;5058121;28;20469;-80
2022/06/14 02:57:43;;;;;;;14.95;7.00;;;10.00;99.90;;;;;;5058357;28;20057;-80
2022/06/14 03:00:13;;;;;;;16.33;7.20;;;9.50;99.90;;;;;;5057633;28;20080;-79
2022/06/14 03:02:44;;;;;;;12.05;6.30;;;9.60;99.90;;;;;;5075473;28;20041;-80
2022/06/14 03:05:26;;;;;;;14.40;6.43;;;9.90;99.90;;;;;;5058414;28;20045;-79
2022/06/14 03:08:12;;;;;;;16.55;7.10;;;9.60;99.90;;;;;;5076107;28;20113;-79
2022/06/14 03:10:53;;;;;;;14.50;7.00;;;9.70;99.90;;;;;;5076208;28;20129;-80
2022/06/14 03:13:57;;;;;;;16.42;7.40;;;9.80;99.90;;;;;;5076160;28;20040;-80
2022/06/14 03:16:37;;;;;;;15.10;6.88;;;9.60;99.90;;;;;;5028977;28;20056;-80
2022/06/14 03:19:21;;;;;;;15.32;7.05;;;9.50;99.90;;;;;;5075778;28;20045;-79
2022/06/14 03:21:52;;;;;;;15.35;7.30;;;9.70;99.90;;;;;;5075562;28;20406;-79
2022/06/14 03:24:32;;;;;;;17.80;7.75;;;9.70;99.90;;;;;;5057348;28;20413;-80
2022/06/14 03:27:16;;;;;;;16.90;7.82;;;10.30;99.90;;;;;;5075538;28;20060;-80
2022/06/14 03:29:49;;;;;;;14.35;7.15;;;9.80;99.90;;;;;;5075082;28;20392;-80
2022/06/14 03:32:39;;;;;;;13.68;7.00;;;9.70;99.90;;;;;;5074990;28;20099;-79
2022/06/14 03:35:26;;;;;;;18.90;8.05;;;10.10;99.90;;;;;;5057148;28;20048;-80
2022/06/14 03:37:54;;;;;;;16.13;7.40;;;9.80;99.90;;;;;;5075377;28;20055;-79
2022/06/14 03:40:23;;;;;;;13.27;7.78;;;9.80;99.90;;;;;;5056783;28;20060;-80
2022/06/14 03:42:49;;;;;;;17.75;7.40;;;9.90;99.90;;;;;;5075127;28;20052;-80
2022/06/14 03:45:20;;;;;;;16.52;7.35;;;9.90;99.90;;;;;;5056586;28;20525;-80
2022/06/14 03:47:48;;;;;;;18.77;8.02;;;;;;;;;;5075249;28;20056;-80
2022/06/14 03:50:30;;;;;;;16.02;7.53;;;10.00;99.90;;;;;;5056789;28;20060;-79
2022/06/14 03:52:58;;;;;;;20.85;7.78;;;10.10;99.90;;;;;;5074509;28;20048;-80
2022/06/14 03:55:41;;;;;;;17.08;7.70;;;10.10;99.90;;;;;;5074813;28;20120;-80
2022/06/14 03:58:44;;;;;;;18.70;7.32;;;10.30;99.90;;;;;;5074974;28;20507;-80
2022/06/14 04:01:18;;;;;;;14.43;7.30;;;10.50;99.90;;;;;;5074352;28;20056;-79
2022/06/14 04:03:56;;;;;;;13.35;6.75;;;10.50;99.90;;;;;;5074757;28;20398;-80
2022/06/14 04:06:32;;;;;;;12.48;6.57;;;11.00;99.90;;;;;;5074444;28;20052;-79
2022/06/14 04:09:13;;;;;;;14.07;6.80;;;10.90;99.90;;;;;;5074560;28;20068;-80
2022/06/14 04:12:02;;;;;;;17.00;7.18;;;10.70;99.90;;;;;;5074275;28;20051;-79
2022/06/14 04:14:45;;;;;;;15.15;7.35;;;10.90;99.90;;;;;;5056488;28;20498;-80
2022/06/14 04:17:33;;;;;;;15.82;7.60;;;10.30;99.90;;;;;;5055357;28;20088;-80
2022/06/14 04:20:15;;;;;;;18.20;8.18;;;10.90;99.90;;;;;;5038338;28;20056;-80
2022/06/14 04:23:12;;;;;;;18.73;7.28;;;11.10;99.90;;;;;;5055016;28;20102;-79
2022/06/14 04:26:07;;;;;;;14.45;7.30;;;11.00;99.90;;;;;;5072882;28;20494;-80
2022/06/14 04:28:47;;;;;;;17.75;7.75;;;11.10;99.90;;;;;;5072798;28;20165;-80
2022/06/14 04:31:28;;;;;;;15.90;7.53;;;11.10;99.90;;;;;;5072712;28;20048;-80
2022/06/14 04:34:32;;;;;;;17.17;6.97;;;11.60;99.90;;;;;;5038238;28;20072;-80
2022/06/14 04:37:07;;;;;;;18.92;7.57;;;11.50;99.90;;;;;;5033042;28;20040;-80
2022/06/14 04:39:38;;;;;;;14.38;6.85;;;11.60;99.90;;;;;;5072863;28;20655;-80
2022/06/14 04:42:23;;;;;;;17.77;7.82;;;11.40;99.90;;;;;;5038054;28;20109;-80
2022/06/14 04:45:01;;;;;;;14.57;7.30;;;11.80;99.90;;;;;;5072630;28;20048;-80
2022/06/14 04:47:35;;;;;;;14.38;7.32;;;12.80;99.90;;;;;;5072805;28;20059;-81
2022/06/14 04:50:11;;;;;;;14.63;6.68;;;13.50;99.90;;;;;;5054635;28;20429;-80
2022/06/14 04:52:41;;;;;;;12.05;6.32;;;14.20;99.90;;;;;;5054333;28;20102;-80
2022/06/14 04:55:07;;;;;;;14.70;6.15;;;;;;;;;;5072507;28;20041;-80
2022/06/14 04:57:46;;;;;;;11.57;6.13;;;15.70;99.90;;;;;;5071288;28;20094;-80
2022/06/14 05:00:27;;;;;;;11.43;5.50;;;16.20;99.90;;;;;;5072112;28;20052;-81
2022/06/14 05:03:07;;;;;;;15.80;5.93;;;16.70;99.90;;;;;;5072523;28;20074;-80
2022/06/14 05:05:40;;;;;;;13.13;5.72;;;17.70;99.90;;;;;;5072382;28;20055;-81
2022/06/14 05:08:09;;;;;;;10.45;5.50;;;18.30;99.90;;;;;;5054323;28;20079;-81
2022/06/14 05:10:42;;;;;;;11.60;5.65;;;18.90;99.90;;;;;;5072353;28;20098;-81
2022/06/14 05:13:14;;;;;;;12.32;5.75;;;19.60;99.90;;;;;;5072794;28;20048;-81
2022/06/14 05:15:57;;;;;;;11.20;4.93;;;19.90;99.90;;;;;;5072226;28;20048;-81
2022/06/14 05:18:34;;;;;;;13.25;5.20;;;20.30;99.90;;;;;;5054134;28;20662;-81
2022/06/14 05:21:15;;;;;;;11.70;5.40;;;20.60;98.10;;;;;;5071929;28;20055;-81
2022/06/14 05:23:48;;;;;;;10.77;4.82;;;21.40;98.30;;;;;;5071989;28;20815;-80
2022/06/14 05:26:29;;;;;;;10.10;4.10;;;21.90;97.00;;;;;;5071997;28;20171;-81
2022/06/14 05:29:13;;;;;;;11.00;4.68;;;22.50;94.90;;;;;;5071971;28;20063;-81
2022/06/14 05:31:50;;;;;;;11.07;4.57;;;23.00;90.80;;;;;;5071716;28;20052;-80
2022/06/14 05:34:58;;;;;;;10.77;4.47;;;23.40;77.20;;;;;;5053745;28;20056;-78
2022/06/14 05:37:31;;;;;;;13.23;4.60;;;23.80;73.40;;;;;;5053081;28;20052;-79
2022/06/14 05:40:08;;;;;;;10.05;4.32;;;24.20;80.30;;;;;;5072014;28;20197;-79
2022/06/14 05:42:44;;;;;;;10.55;4.18;;;24.70;82.20;;;;;;5072634;28;20053;-79
2022/06/14 05:45:12;;;;;;;11.15;4.20;;;24.80;64.80;;;;;;5054626;28;20171;-80
2022/06/14 05:47:46;;;;;;;11.35;4.50;;;25.10;73.60;;;;;;5054067;28;20059;-80
2022/06/14 05:50:24;;;;;;;10.33;4.27;;;25.60;61.50;;;;;;5071456;28;20060;-81
2022/06/14 05:52:55;;;;;;;10.23;4.13;;;26.10;59.20;;;;;;5062390;28;20644;-81
2022/06/14 05:55:22;;;;;;;11.90;4.57;;;;;;;;;;5080391;28;20094;-81
2022/06/14 05:57:56;;;;;;;15.70;4.25;;;26.60;67.40;;;;;;5092585;28;20518;-79
2022/06/14 06:00:30;;;;;;;12.55;3.90;;;27.00;65.50;;;;;;5095694;28;20052;-80
2022/06/14 06:03:16;;;;;;;13.73;4.03;;;27.10;54.90;;;;;;5090614;28;20493;-79
2022/06/14 06:05:51;;;;;;;8.77;3.80;;;25.90;62.30;;;;;;5085286;28;20052;-81
2022/06/14 06:08:28;;;;;;;9.93;3.70;;;27.10;55.40;;;;;;5075557;28;20051;-80
2022/06/14 06:11:03;;;;;;;11.40;4.05;;;27.20;62.10;;;;;;5092917;28;20178;-80
2022/06/14 06:13:46;;;;;;;11.38;3.67;;;28.10;51.30;;;;;;5094402;28;20044;-80
2022/06/14 06:16:38;;;;;;;14.05;4.13;;;28.80;58.40;;;;;;5075373;28;20055;-80
2022/06/14 06:19:42;;;;;;;12.02;3.47;;;29.10;58.80;;;;;;5075338;28;20051;-80
2022/06/14 06:22:26;;;;;;;12.18;3.70;;;29.20;57.60;;;;;;5079642;28;20048;-80
2022/06/14 06:24:58;;;;;;;11.95;3.38;;;29.20;47.00;;;;;;5093417;28;20083;-80
2022/06/14 06:27:41;;;;;;;10.45;3.40;;;29.30;45.70;;;;;;5094329;28;20044;-80
2022/06/14 06:30:17;;;;;;;8.90;3.00;;;29.30;45.10;;;;;;5093640;28;20040;-81
2022/06/14 06:32:43;;;;;;;12.88;3.30;;;;;;;;;;5091459;28;20056;-81
2022/06/14 06:35:11;;;;;;;8.25;2.92;;;29.30;44.90;;;;;;5073475;28;20056;-80
2022/06/14 06:37:44;;;;;;;10.43;3.40;;;29.40;45.00;;;;;;5056077;28;20467;-81
2022/06/14 06:40:23;;;;;;;10.70;3.13;;;29.50;44.40;;;;;;5057221;28;20048;-80
2022/06/14 06:42:58;;;;;;;9.10;3.40;;;29.40;44.30;;;;;;5093584;28;20105;-81
2022/06/14 06:45:24;;;;;;;11.35;3.45;;;;;;;;;;5075601;28;20710;-81
2022/06/14 06:48:13;;;;;;;12.02;3.28;;;29.70;43.50;;;;;;5058037;28;20466;-81
2022/06/14 06:50:39;;;;;;;11.02;3.38;;;;;;;;;;5093690;28;20044;-81
2022/06/14 06:53:22;;;;;;;9.18;3.10;;;29.40;53.60;;;;;;5093063;28;20052;-81
2022/06/14 06:56:12;;;;;;;11.27;2.95;;;29.60;53.80;;;;;;5092909;28;20127;-81
2022/06/14 06:59:09;;;;;;;7.57;3.00;;;29.40;53.30;;;;;;5093859;28;20044;-81
2022/06/14 07:01:40;;;;;;;7.10;2.60;;;29.00;44.00;;;;;;5045036;28;20051;-80
2022/06/14 07:04:19;;;;;;;11.90;3.55;;;28.60;44.50;;;;;;5093209;28;20131;-80
2022/06/14 07:06:56;;;;;;;10.02;3.08;;;28.40;45.30;;;;;;5074612;28;20096;-81
2022/06/14 07:09:47;;;;;;;8.52;2.75;;;28.10;45.40;;;;;;5090487;28;20075;-81
2022/06/14 07:12:19;;;;;;;9.98;2.70;;;28.00;46.30;;;;;;5092701;28;20082;-81
2022/06/14 07:14:55;;;;;;;9.82;3.17;;;27.60;55.60;;;;;;5087637;28;20059;-80
2022/06/14 07:17:37;;;;;;;11.05;3.10;;;27.70;57.40;;;;;;5092376;28;20051;-81
2022/06/14 07:20:20;;;;;;;10.82;3.25;;;26.90;57.60;;;;;;5081719;28;20052;-81
2022/06/14 07:23:21;;;;;;;10.25;3.00;;;26.40;58.70;;;;;;5072711;28;20064;-81
2022/06/14 07:26:17;;;;;;;10.18;2.80;;;26.10;59.70;;;;;;5086786;28;20044;-82
2022/06/14 07:29:04;;;;;;;10.18;3.05;;;25.80;60.70;;;;;;5074236;28;20113;-81
2022/06/14 07:31:53;;;;;;;8.68;3.00;;;25.30;60.90;;;;;;5092237;28;20544;-81
2022/06/14 07:34:19;;;;;;;9.50;3.00;;;25.00;61.40;;;;;;5071059;28;20091;-82
2022/06/14 07:37:20;;;;;;;8.77;2.72;;;24.40;62.90;;;;;;5089681;28;20076;-81
2022/06/14 07:40:05;;;;;;;10.45;2.50;;;25.00;65.00;;;;;;5073058;28;20059;-81
2022/06/14 07:42:41;;;;;;;10.48;2.65;;;24.20;63.70;;;;;;5090492;28;20051;-81
2022/06/14 07:45:20;;;;;;;9.57;2.63;;;24.40;64.20;;;;;;5084493;28;20044;-80
2022/06/14 07:48:15;;;;;;;10.77;2.80;;;24.00;66.00;;;;;;5081030;28;20056;-80
2022/06/14 07:50:56;;;;;;;8.63;2.77;;;24.60;65.30;;;;;;5074707;28;20186;-80
2022/06/14 07:53:52;;;;;;;7.47;2.42;;;23.20;64.60;;;;;;5093018;28;20052;-80
2022/06/14 07:56:22;;;;;;;6.70;2.30;;;23.10;67.20;;;;;;5093231;28;20048;-81
2022/06/14 07:59:12;;;;;;;9.32;2.50;;;22.50;58.50;;;;;;5085039;28;20058;-81
2022/06/14 08:01:58;;;;;;;8.55;2.60;;;21.90;70.90;;;;;;5092892;28;20060;-81
2022/06/14 08:04:35;;;;;;;9.63;2.60;;;23.40;65.10;;;;;;5086533;28;20059;-80
2022/06/14 08:07:09;;;;;;;5.97;2.28;;;21.60;72.60;;;;;;5093300;28;20044;-80
2022/06/14 08:10:15;;;;;;;7.93;2.30;;;21.90;63.20;;;;;;5069614;28;20040;-80
2022/06/14 08:13:01;;;;;;;11.60;2.60;;;22.80;70.60;;;;;;5065429;28;20370;-81
2022/06/14 08:15:44;;;;;;;6.10;2.40;;;22.90;69.10;;;;;;5074446;28;20052;-81
2022/06/14 08:18:21;;;;;;;7.78;2.38;;;23.10;70.00;;;;;;5089551;28;20123;-81
2022/06/14 08:20:58;;;;;;;5.88;2.60;;;22.40;69.00;;;;;;5057571;28;20039;-80
2022/06/14 08:23:49;;;;;;;8.07;2.60;;;21.90;69.40;;;;;;5092841;28;20048;-81
2022/06/14 08:26:33;;;;;;;7.95;2.45;;;22.10;60.70;;;;;;5094198;28;20409;-80
2022/06/14 08:29:08;;;;;;;6.13;2.00;;;21.80;60.40;;;;;;5093255;28;20524;-80
2022/06/14 08:31:50;;;;;;;6.35;2.22;;;22.00;71.80;;;;;;5074994;28;20142;-80
2022/06/14 08:34:30;;;;;;;7.10;2.30;;;22.10;61.90;;;;;;5093483;28;20058;-80
2022/06/14 08:37:15;;;;;;;8.40;2.22;;;22.20;61.50;;;;;;5074750;28;20135;-80
2022/06/14 08:39:48;;;;;;;9.35;2.42;;;21.80;61.10;;;;;;5075184;28;20052;-80
2022/06/14 08:42:37;;;;;;;7.40;2.33;;;21.60;71.40;;;;;;5070933;28;20157;-81
2022/06/14 08:45:22;;;;;;;8.75;2.75;;;21.10;71.50;;;;;;5092019;28;20052;-81
2022/06/14 08:48:10;;;;;;;8.18;2.60;;;20.80;65.20;;;;;;5074238;28;20166;-81
2022/06/14 08:51:28;;;;;;;6.93;2.55;;;20.60;75.60;;;;;;5076289;28;20052;-80
2022/06/14 08:54:31;;;;;;;8.70;2.63;;;20.30;68.50;;;;;;5093288;28;20414;-81
2022/06/14 08:57:11;;;;;;;7.43;2.55;;;20.40;67.50;;;;;;5092737;28;20040;-80
2022/06/14 08:59:59;;;;;;;4.78;1.85;;;20.80;74.90;;;;;;5092361;28;20079;-79
2022/06/14 09:02:43;;;;;;;5.15;2.10;;;21.30;74.40;;;;;;5071905;28;20124;-80
2022/06/14 09:05:43;;;;;;;5.43;2.05;;;21.70;72.20;;;;;;5072120;28;20048;-80
2022/06/14 09:08:44;;;;;;;6.90;2.38;;;22.20;69.70;;;;;;5042169;28;20057;-80
2022/06/14 09:11:40;;;;;;;7.30;2.10;;;21.90;59.50;;;;;;5035511;28;20065;-80
2022/06/14 09:14:46;;;;;;;4.97;1.90;;;21.80;70.80;;;;;;5052842;28;20099;-79
2022/06/14 09:17:21;;;;;;;5.68;2.13;;;21.60;59.40;;;;;;5066770;28;20059;-78
2022/06/14 09:19:47;;;;;;;6.93;1.80;;;;;;;;;;5053884;28;20057;-79
2022/06/14 09:22:41;;;;;;;7.00;2.05;;;20.70;72.50;;;;;;5071712;28;20059;-79
2022/06/14 09:25:28;;;;;;;7.00;1.90;;;20.30;73.90;;;;;;5071526;28;20054;-79
2022/06/14 09:28:27;;;;;;;9.93;2.10;;;20.50;66.00;;;;;;5071509;28;20055;-79
2022/06/14 09:30:56;;;;;;;5.43;2.10;;;21.00;79.50;;;;;;5071298;28;20063;-79
2022/06/14 09:33:49;;;;;;;6.43;2.03;;;21.10;73.30;;;;;;5053243;28;20487;-79
2022/06/14 09:36:27;;;;;;;7.18;2.10;;;20.40;75.00;;;;;;5036732;28;20053;-79
2022/06/14 09:38:59;;;;;;;5.60;1.88;;;20.80;71.20;;;;;;5036348;28;20044;-78
2022/06/14 09:41:46;;;;;;;8.57;2.20;;;21.30;70.00;;;;;;5053116;28;20048;-79
2022/06/14 09:44:12;;;;;;;5.43;2.00;;;;;;;;;;5057039;28;20049;-79
2022/06/14 09:46:49;;;;;;;5.57;2.05;;;21.70;70.20;;;;;;5055718;28;20131;-80
2022/06/14 09:49:27;;;;;;;6.28;2.20;;;22.10;68.60;;;;;;5048749;28;20102;-80
2022/06/14 09:52:30;;;;;;;4.93;2.00;;;22.20;67.80;;;;;;5040726;28;20057;-80
2022/06/14 09:55:31;;;;;;;8.38;1.95;;;22.40;66.10;;;;;;5041080;28;20217;-79
2022/06/14 09:58:31;;;;;;;7.90;2.20;;;21.50;70.10;;;;;;4954022;29;20466;-80
2022/06/14 10:01:12;;;;;;;6.60;2.00;;;21.40;68.60;;;;;;4949825;28;20059;-80
2022/06/14 10:03:40;;;;;;;8.63;2.20;;;21.50;70.50;;;;;;4931324;28;20117;-80
2022/06/14 10:06:39;;;;;;;5.88;2.20;;;21.70;66.00;;;;;;4970830;28;20062;-80
2022/06/14 10:09:36;;;;;;;7.05;2.10;;;21.20;64.10;;;;;;4940342;29;20431;-80
2022/06/14 10:12:34;;;;;;;7.53;2.20;;;21.20;65.60;;;;;;4953880;29;20055;-80
2022/06/14 10:15:15;;;;;;;5.93;1.92;;;20.90;74.70;;;;;;4933532;29;20058;-80
2022/06/14 10:18:02;;;;;;;8.82;2.38;;;20.80;73.20;;;;;;4953772;29;20055;-80
2022/06/14 10:20:57;;;;;;;5.47;2.13;;;20.80;74.00;;;;;;4937910;28;20541;-81
2022/06/14 10:24:17;;;;;;;11.15;2.00;;;20.80;72.60;;;;;;4913111;29;20051;-80
2022/06/14 10:29:59;;;;;;;5.55;1.92;;;21.00;72.10;;;;;;4913543;29;20535;-81
2022/06/14 10:32:40;;;;;;;10.93;2.22;;;21.70;74.10;;;;;;4981022;28;20065;-80
2022/06/14 10:35:19;;;;;;;5.32;1.90;;;22.00;70.50;;;;;;4995765;28;20050;-79
2022/06/14 10:38:17;;;;;;;3.17;1.60;;;21.70;67.30;;;;;;5003002;28;20058;-80
2022/06/14 10:40:48;;;;;;;4.18;1.85;;;23.70;61.00;;;;;;4994009;28;20529;-80
2022/06/14 10:43:34;;;;;;;4.75;1.98;;;21.90;60.00;;;;;;5004826;28;20046;-80
2022/06/14 10:46:20;;;;;;;7.45;1.95;;;22.10;62.10;;;;;;5011008;28;20046;-81
2022/06/14 10:49:10;;;;;;;;;;;22.00;62.70;;;;;;5011753;28;20061;-80
2022/06/14 10:51:36;;;;;;;5.70;1.80;;;;;;;;;;5009161;28;19926;-80
2022/06/14 10:54:16;;;;;;;6.53;2.00;;;21.40;71.30;;;;;;5010399;28;20046;-79
2022/06/14 10:57:13;;;;;;;7.50;2.05;;;21.30;71.60;;;;;;5011485;28;20050;-80
2022/06/14 10:59:57;;;;;;;4.38;1.80;;;21.20;71.60;;;;;;5020014;28;20658;-80
2022/06/14 11:02:39;;;;;;;7.28;2.00;;;21.20;64.50;;;;;;5075988;28;20390;-79
2022/06/14 11:05:21;;;;;;;5.72;2.03;;;21.60;73.40;;;;;;5086215;28;20056;-80
2022/06/14 11:08:05;;;;;;;6.22;2.00;;;21.90;71.10;;;;;;5059476;28;20044;-80
2022/06/14 11:11:10;;;;;;;4.68;2.00;;;22.80;71.40;;;;;;5075672;28;20044;-80
2022/06/14 11:13:36;;;;;;;5.93;1.85;;;;;;;;;;5075710;28;20060;-80
2022/06/14 11:16:16;;;;;;;9.50;2.00;;;22.50;59.40;;;;;;5076148;28;20056;-80
2022/06/14 11:18:58;;;;;;;5.25;1.80;;;22.50;67.70;;;;;;5093349;28;20064;-80
2022/06/14 11:21:46;;;;;;;4.78;2.00;;;22.20;67.30;;;;;;5094482;28;20036;-79
2022/06/14 11:24:27;;;;;;;4.97;1.75;;;22.60;58.40;;;;;;5074120;28;20044;-80
2022/06/14 11:27:09;;;;;;;5.50;2.00;;;22.60;67.60;;;;;;5094917;28;20060;-80
2022/06/14 11:29:43;;;;;;;5.88;1.73;;;22.30;65.70;;;;;;5094724;28;20701;-80
2022/06/14 11:32:17;;;;;;;4.55;1.70;;;19.90;57.00;;;;;;5059722;28;20517;-80
2022/06/14 11:35:00;;;;;;;5.15;1.70;;;22.00;58.70;;;;;;5079486;28;20074;-80
2022/06/14 11:37:35;;;;;;;6.40;2.03;;;21.40;67.40;;;;;;5099841;28;20452;-81
2022/06/14 11:40:06;;;;;;;9.17;1.73;;;21.50;60.60;;;;;;5099147;28;20059;-80
2022/06/14 11:42:56;;;;;;;6.38;1.80;;;20.50;71.50;;;;;;5075787;28;20056;-80
2022/06/14 11:45:24;;;;;;;4.97;1.85;;;21.50;63.20;;;;;;5094320;28;20051;-80
2022/06/14 11:48:11;;;;;;;6.28;2.10;;;21.70;61.60;;;;;;5093492;28;20411;-80
2022/06/14 11:51:05;;;;;;;5.55;2.00;;;21.70;69.10;;;;;;5093707;28;20087;-80
2022/06/14 11:53:52;;;;;;;5.45;1.90;;;21.60;68.00;;;;;;5093483;28;20410;-80
2022/06/14 11:56:46;;;;;;;7.15;1.80;;;21.40;67.90;;;;;;5075300;28;20105;-80
2022/06/14 11:59:57;;;;;;;5.20;1.88;;;21.60;61.30;;;;;;5075309;28;20060;-80
2022/06/14 12:02:57;;;;;;;6.40;1.95;;;21.60;71.60;;;;;;5093635;28;20058;-79
2022/06/14 12:05:28;;;;;;;4.90;2.10;;;18.80;67.90;;;;;;5058029;28;20087;-80
2022/06/14 12:07:57;;;;;;;5.18;2.15;;;;;;;;;;5092409;28;20148;-80
2022/06/14 12:10:39;;;;;;;6.32;2.05;;;21.70;68.30;;;;;;5092065;28;20391;-81
2022/06/14 12:13:34;;;;;;;6.18;1.83;;;21.80;69.00;;;;;;5092903;28;20059;-80
2022/06/14 12:16:24;;;;;;;5.97;1.90;;;21.50;71.10;;;;;;5074751;28;20093;-80
2022/06/14 12:19:13;;;;;;;9.15;2.20;;;22.20;69.40;;;;;;5075459;28;20055;-80
2022/06/14 12:22:26;;;;;;;5.75;1.70;;;21.90;62.60;;;;;;5074958;28;20044;-79
2022/06/14 12:27:42;;;;;;;7.63;1.70;;;22.60;67.20;;;;;;5074482;28;20047;-79
2022/06/14 12:30:12;;;;;;;5.85;1.92;;;22.10;67.60;;;;;;5074565;28;20083;-80
2022/06/14 12:32:46;;;;;;;4.70;1.88;;;22.50;60.10;;;;;;5074279;28;20505;-80
2022/06/14 12:35:22;;;;;;;4.07;1.85;;;22.30;69.40;;;;;;5092880;28;20495;-80
2022/06/14 12:38:05;;;;;;;6.43;1.88;;;22.20;59.40;;;;;;5093148;28;20056;-80
2022/06/14 12:40:49;;;;;;;9.43;1.88;;;22.10;60.20;;;;;;5092927;28;20048;-80
2022/06/14 12:43:23;;;;;;;4.70;1.85;;;22.10;68.50;;;;;;5092673;28;20046;-80
2022/06/14 12:45:53;;;;;;;7.47;2.00;;;22.10;68.20;;;;;;5074212;28;20058;-80
2022/06/14 12:48:26;;;;;;;5.95;2.20;;;21.90;69.20;;;;;;5092551;28;20109;-80
2022/06/14 12:51:03;;;;;;;5.53;1.85;;;21.70;67.90;;;;;;5092493;28;20079;-80
2022/06/14 12:53:56;;;;;;;6.60;2.00;;;22.60;68.30;;;;;;5092361;28;20062;-80
2022/06/14 12:56:40;;;;;;;9.32;1.80;;;22.20;70.00;;;;;;5009796;28;20062;-80
2022/06/14 12:59:41;;;;;;;4.13;1.77;;;22.00;60.50;;;;;;5009893;28;20155;-80
2022/06/14 13:02:28;;;;;;;5.50;1.67;;;22.00;61.40;;;;;;5009817;28;20081;-81
2022/06/14 13:05:11;;;;;;;4.40;1.77;;;22.00;61.00;;;;;;4993452;28;20210;-80
2022/06/14 13:07:48;;;;;;;5.22;1.92;;;22.00;61.80;;;;;;4993354;28;20058;-80
2022/06/14 13:10:46;;;;;;;5.15;2.00;;;21.70;69.20;;;;;;5009842;28;20060;-80
2022/06/14 13:13:31;;;;;;;4.38;2.00;;;22.00;60.00;;;;;;5009761;28;20054;-80
2022/06/14 13:16:15;;;;;;;7.80;2.17;;;22.00;69.10;;;;;;4976250;28;20172;-80
2022/06/14 13:18:46;;;;;;;5.68;1.98;;;22.30;60.60;;;;;;4991932;28;20054;-80
2022/06/14 13:21:34;;;;;;;12.23;2.38;;;23.00;66.50;;;;;;5005107;28;20539;-80
2022/06/14 13:24:18;;;;;;;6.65;2.00;;;22.80;59.80;;;;;;5027875;28;20129;-81
2022/06/14 13:27:12;;;;;;;4.93;1.83;;;23.30;67.10;;;;;;5028136;28;20867;-80
2022/06/14 13:30:08;;;;;;;16.20;2.42;;;23.60;58.80;;;;;;5033635;28;20037;-84
2022/06/14 13:32:55;;;;;;;7.65;2.03;;;24.10;56.40;;;;;;5069854;28;20084;-84
2022/06/14 13:36:01;;;;;;;5.47;1.90;;;24.40;63.20;;;;;;5119081;28;20066;-84
2022/06/14 13:39:13;;;;;;;6.45;1.90;;;24.20;60.40;;;;;;5116830;28;20039;-84
2022/06/14 13:42:00;;;;;;;5.03;2.60;;;24.90;59.80;;;;;;5136977;27;20091;-85
2022/06/14 13:44:42;;;;;;;7.72;1.90;;;24.70;58.30;;;;;;5118857;28;20036;-85
2022/06/14 13:47:39;;;;;;;5.15;1.70;;;24.40;58.10;;;;;;5117728;28;20076;-86
2022/06/14 13:50:36;;;;;;;5.00;1.90;;;24.20;59.10;;;;;;5095094;28;20044;-86
2022/06/14 13:53:20;;;;;;;8.27;1.88;;;24.20;53.30;;;;;;5060050;28;20041;-83
2022/06/14 13:56:04;;;;;;;6.32;1.75;;;23.70;59.50;;;;;;5068042;28;20063;-82
2022/06/14 13:58:45;;;;;;;4.18;1.70;;;23.50;62.40;;;;;;5073255;28;20258;-82
2022/06/14 14:01:36;;;;;;;4.47;1.60;;;23.20;54.10;;;;;;5071325;28;20053;-82
2022/06/14 14:04:30;;;;;;;5.13;1.70;;;23.00;65.10;;;;;;5092194;28;20084;-82
2022/06/14 14:07:09;;;;;;;8.35;1.90;;;24.70;54.80;;;;;;5067889;28;20056;-83
2022/06/14 14:10:04;;;;;;;3.85;1.60;;;20.90;54.10;;;;;;5061904;28;20197;-82
2022/06/14 14:12:44;;;;;;;7.18;2.03;;;22.70;55.60;;;;;;5078679;28;20046;-82
2022/06/14 14:15:23;;;;;;;4.32;1.85;;;22.40;63.00;;;;;;5094953;28;20056;-83
2022/06/14 14:18:08;;;;;;;5.63;1.75;;;22.30;61.80;;;;;;5093252;28;20048;-83
2022/06/14 14:20:46;;;;;;;3.30;1.65;;;22.60;56.90;;;;;;5095033;28;20036;-83
2022/06/14 14:24:06;;;;;;;6.28;1.80;;;23.10;62.00;;;;;;5095334;28;20028;-82
2022/06/14 14:26:42;;;;;;;3.55;1.50;;;22.70;56.40;;;;;;5034453;28;20066;-83
2022/06/14 14:30:04;;;;;;;7.80;1.70;;;22.70;55.40;;;;;;5035211;28;20112;-82
2022/06/14 14:32:39;;;;;;;4.63;1.67;;;21.80;61.80;;;;;;4982337;28;20059;-84
2022/06/14 14:35:21;;;;;;;;;;;22.10;55.80;;;;;;4996928;28;20031;-84
2022/06/14 14:37:52;;;;;;;5.38;1.92;;;21.40;63.00;;;;;;4965660;28;19969;-83
2022/06/14 14:40:24;;;;;;;5.22;1.70;;;21.50;57.00;;;;;;4998115;28;20043;-83
2022/06/14 14:43:10;;;;;;;3.75;1.80;;;21.50;57.00;;;;;;4998167;28;20089;-82
2022/06/14 14:45:41;;;;;;;5.28;1.60;;;21.70;62.80;;;;;;4999378;28;20065;-83
2022/06/14 14:48:35;;;;;;;2.95;1.45;;;21.30;64.70;;;;;;4996480;28;20067;-82
2022/06/14 14:51:14;;;;;;;3.17;1.45;;;21.40;58.90;;;;;;4957382;28;20070;-81
2022/06/14 14:54:38;;;;;;;4.32;1.50;;;21.30;62.40;;;;;;4971489;28;20059;-81
2022/06/14 14:57:06;;;;;;;6.90;1.70;;;21.50;57.10;;;;;;4928358;29;20048;-81
2022/06/14 14:59:40;;;;;;;4.45;1.70;;;21.50;63.80;;;;;;4922355;29;20052;-81
2022/06/14 15:05:26;;;;;;;4.30;1.67;;;21.80;66.80;;;;;;4944636;28;20142;-81
2022/06/14 15:08:23;;;;;;;3.63;1.70;;;22.00;58.70;;;;;;5039254;28;20057;-83
2022/06/14 15:11:25;;;;;;;5.22;1.70;;;22.10;63.70;;;;;;5039445;28;20200;-82
2022/06/14 15:13:58;;;;;;;7.43;1.70;;;22.00;67.00;;;;;;5014005;28;20054;-81
2022/06/14 15:16:27;;;;;;;7.07;1.90;;;;;;;;;;4993664;28;20081;-80
2022/06/14 15:21:43;;;;;;;;;;;24.50;60.90;;;;;;5041498;28;20538;-81